Time;durP1;ratioP1;P1;durP2;ratioP2;P2;SDS_P1;SDS_P2;PMS_P1;PMS_P2;Temp;Humidity;BMP_temperature;BMP_pressure;BME280_temperature;BME280_humidity;BME280_pressure;Samples;Min_cycle;Max_cycle;Signal;HPM_P1;HPM_P2
2022/12/23 00:01:02;;;;;;;6.77;1.20;;;;;;;;;;5005779;28;20221;-77
2022/12/23 00:04:07;;;;;;;6.30;1.30;;;;;;;;;;5005794;28;20225;-77
2022/12/23 00:07:11;;;;;;;2.60;1.03;;;;;;;;;;5005265;28;20177;-76
2022/12/23 00:10:15;;;;;;;6.37;1.30;;;;;;;;;;5005049;28;20182;-77
2022/12/23 00:16:42;;;;;;;7.23;1.40;;;;;;;;;;5016574;28;20182;-76
2022/12/23 00:19:46;;;;;;;3.30;1.00;;;;;;;;;;5017471;28;20173;-76
2022/12/23 00:23:06;;;;;;;5.03;1.00;;;;;;;;;;5003805;28;20221;-76
2022/12/23 00:26:22;;;;;;;5.73;1.40;;;;;;;;;;5014381;28;20210;-76
2022/12/23 00:29:26;;;;;;;4.77;1.20;;;;;;;;;;5016237;28;20182;-77
2022/12/23 00:32:30;;;;;;;3.03;1.00;;;;;;;;;;4992354;28;20220;-77
2022/12/23 00:35:35;;;;;;;4.80;1.40;;;;;;;;;;5004162;28;20181;-77
2022/12/23 00:45:29;;;;;;;4.20;1.33;;;;;;;;;;5003067;28;20229;-77
2022/12/23 00:51:56;;;;;;;5.73;1.33;;;;;;;;;;4990928;28;20221;-77
2022/12/23 00:54:59;;;;;;;9.43;1.57;;;;;;;;;;5014555;28;20514;-76
2022/12/23 00:58:04;;;;;;;6.00;1.20;;;;;;;;;;5014524;28;20174;-76
2022/12/23 01:07:54;;;;;;;3.90;1.00;;;;;;;;;;5001849;28;20193;-77
2022/12/23 01:11:02;;;;;;;2.97;1.20;;;;;;;;;;5013166;28;20208;-77
2022/12/23 01:14:08;;;;;;;2.43;0.80;;;;;;;;;;4990878;28;20177;-77
2022/12/23 01:17:12;;;;;;;3.87;1.33;;;;;;;;;;4990870;28;20173;-77
2022/12/23 01:20:16;;;;;;;6.43;0.87;;;;;;;;;;5013015;28;20189;-77
2022/12/23 01:23:20;;;;;;;4.83;1.10;;;;;;;;;;4990446;28;20177;-77
2022/12/23 01:26:25;;;;;;;2.63;0.90;;;;;;;;;;5013761;28;20213;-77
2022/12/23 01:29:29;;;;;;;3.90;0.70;;;;;;;;;;4990569;28;20185;-77
2022/12/23 01:32:33;;;;;;;3.07;0.67;;;;;;;;;;5013366;28;20221;-77
2022/12/23 01:35:37;;;;;;;4.70;0.80;;;;;;;;;;5013645;28;20177;-77
2022/12/23 01:38:42;;;;;;;3.53;1.10;;;;;;;;;;5000820;28;20185;-76
2022/12/23 01:45:27;;;;;;;5.57;0.87;;;;;;;;;;5001560;28;20217;-76
2022/12/23 01:48:31;;;;;;;1.60;0.83;;;;;;;;;;5001490;28;20177;-76
2022/12/23 01:51:35;;;;;;;3.17;0.70;;;;;;;;;;5001223;28;20565;-76
2022/12/23 01:54:40;;;;;;;2.40;1.10;;;;;;;;;;5002000;28;20513;-76
2022/12/23 01:57:45;;;;;;;3.63;0.80;;;;;;;;;;4992789;28;20194;-76
2022/12/23 02:04:17;;;;;;;1.67;0.70;;;;;;;;;;4993868;28;20178;-76
2022/12/23 02:11:17;;;;;;;2.03;0.70;;;;;;;;;;4992779;28;20288;-77
2022/12/23 02:18:20;;;;;;;2.93;0.60;;;;;;;;;;4993899;28;20183;-76
2022/12/23 02:21:42;;;;;;;1.03;0.70;;;;;;;;;;4992941;28;20221;-76
2022/12/23 02:25:01;;;;;;;2.80;0.87;;;;;;;;;;4992793;28;20210;-76
2022/12/23 02:28:37;;;;;;;2.10;0.87;;;;;;;;;;4993544;28;20630;-76
2022/12/23 02:31:57;;;;;;;1.07;0.70;;;;;;;;;;4981645;28;20218;-76
2022/12/23 02:35:19;;;;;;;1.77;0.70;;;;;;;;;;4992908;28;20531;-76
2022/12/23 02:38:47;;;;;;;2.73;0.70;;;;;;;;;;4992808;28;20182;-76
2022/12/23 02:41:58;;;;;;;1.93;0.80;;;;;;;;;;4992519;28;20222;-76
2022/12/23 02:45:16;;;;;;;2.27;0.70;;;;;;;;;;4993064;28;20226;-76
2022/12/23 02:48:33;;;;;;;3.60;1.23;;;;;;;;;;4993464;28;20520;-76
2022/12/23 02:51:43;;;;;;;1.53;0.90;;;;;;;;;;4984650;28;20218;-76
2022/12/23 02:54:51;;;;;;;2.83;0.90;;;;;;;;;;4997212;28;20507;-76
2022/12/23 02:57:58;;;;;;;3.13;1.10;;;;;;;;;;4985158;28;20183;-76
2022/12/23 03:01:05;;;;;;;1.27;0.90;;;;;;;;;;4995958;28;20218;-76
2022/12/23 03:04:10;;;;;;;1.80;0.90;;;;;;;;;;4996607;28;20198;-76
2022/12/23 03:07:19;;;;;;;2.53;0.90;;;;;;;;;;4996151;28;20527;-77
2022/12/23 03:10:49;;;;;;;3.90;0.90;;;;;;;;;;4996423;28;20182;-76
2022/12/23 03:14:29;;;;;;;2.43;1.17;;;;;;;;;;4996567;28;20186;-76
2022/12/23 03:17:48;;;;;;;1.40;0.73;;;;;;;;;;4996479;28;20575;-76
2022/12/23 03:21:00;;;;;;;3.37;1.03;;;;;;;;;;4995255;28;20218;-76
2022/12/23 03:24:22;;;;;;;3.70;1.80;;;;;;;;;;4995281;28;20187;-76
2022/12/23 03:27:41;;;;;;;3.13;0.90;;;;;;;;;;4995429;28;20504;-76
2022/12/23 03:30:51;;;;;;;1.57;0.80;;;;;;;;;;4996111;28;20190;-76
2022/12/23 03:34:01;;;;;;;1.80;0.83;;;;;;;;;;4995161;28;20190;-76
2022/12/23 03:37:09;;;;;;;1.70;0.73;;;;;;;;;;4995229;28;20182;-76
2022/12/23 03:40:28;;;;;;;3.93;1.13;;;;;;;;;;4995166;28;20178;-76
2022/12/23 03:43:38;;;;;;;1.23;0.90;;;;;;;;;;4995994;28;20179;-76
2022/12/23 03:46:48;;;;;;;3.70;1.00;;;;;;;;;;4995461;28;20210;-76
2022/12/23 03:49:58;;;;;;;1.43;0.90;;;;;;;;;;4994702;28;20198;-76
2022/12/23 03:53:15;;;;;;;3.17;0.80;;;;;;;;;;4995808;28;20186;-76
2022/12/23 03:56:27;;;;;;;1.93;0.80;;;;;;;;;;4994742;28;20654;-75
2022/12/23 03:59:35;;;;;;;2.07;0.70;;;;;;;;;;4995618;28;20198;-75
2022/12/23 04:03:03;;;;;;;1.53;0.90;;;;;;;;;;4994684;28;20214;-75
2022/12/23 04:06:12;;;;;;;1.93;0.97;;;;;;;;;;4994289;28;20226;-74
2022/12/23 04:09:17;;;;;;;1.20;0.70;;;;;;;;;;4995375;28;20523;-75
2022/12/23 04:12:24;;;;;;;1.73;0.90;;;;;;;;;;4995350;28;20218;-75
2022/12/23 04:15:30;;;;;;;3.27;0.70;;;;;;;;;;4995291;28;20277;-75
2022/12/23 04:18:34;;;;;;;1.73;0.67;;;;;;;;;;4995188;28;20178;-75
2022/12/23 04:21:38;;;;;;;4.53;0.60;;;;;;;;;;4995016;28;20210;-75
2022/12/23 04:24:43;;;;;;;2.47;0.90;;;;;;;;;;4995028;28;20182;-75
2022/12/23 04:27:47;;;;;;;2.20;0.70;;;;;;;;;;4994786;28;20194;-75
2022/12/23 04:30:51;;;;;;;1.90;0.50;;;;;;;;;;4994754;28;20222;-75
2022/12/23 04:33:55;;;;;;;3.47;0.80;;;;;;;;;;4995104;28;20543;-75
2022/12/23 04:37:00;;;;;;;1.93;0.70;;;;;;;;;;4994786;28;20554;-74
2022/12/23 04:40:05;;;;;;;3.30;0.87;;;;;;;;;;4993705;28;20198;-75
2022/12/23 04:43:09;;;;;;;2.67;0.90;;;;;;;;;;4994547;28;20202;-76
2022/12/23 04:46:13;;;;;;;0.70;0.60;;;;;;;;;;4994363;28;20210;-75
2022/12/23 04:49:17;;;;;;;2.20;0.80;;;;;;;;;;4994036;28;20186;-75
2022/12/23 04:52:22;;;;;;;1.60;0.50;;;;;;;;;;4994272;28;20226;-75
2022/12/23 04:55:26;;;;;;;4.10;0.67;;;;;;;;;;4993712;28;20182;-75
2022/12/23 04:58:30;;;;;;;0.70;0.60;;;;;;;;;;4994209;28;20178;-75
2022/12/23 05:01:34;;;;;;;2.53;1.03;;;;;;;;;;4993450;28;20213;-76
2022/12/23 05:04:39;;;;;;;2.03;0.53;;;;;;;;;;4994538;28;20685;-77
2022/12/23 05:07:43;;;;;;;0.97;0.50;;;;;;;;;;4994176;28;20179;-76
2022/12/23 05:10:47;;;;;;;0.77;0.60;;;;;;;;;;4993884;28;20186;-76
2022/12/23 05:13:52;;;;;;;1.23;0.63;;;;;;;;;;4993334;28;20181;-75
2022/12/23 05:16:56;;;;;;;0.87;0.60;;;;;;;;;;4994421;28;20174;-75
2022/12/23 05:20:00;;;;;;;2.00;0.50;;;;;;;;;;4982009;28;20185;-75
2022/12/23 05:23:04;;;;;;;3.43;0.70;;;;;;;;;;4994415;28;20190;-75
2022/12/23 05:26:08;;;;;;;2.17;0.70;;;;;;;;;;4993252;28;20218;-75
2022/12/23 05:29:12;;;;;;;2.00;0.70;;;;;;;;;;4994058;28;20630;-75
2022/12/23 05:32:16;;;;;;;0.40;0.40;;;;;;;;;;4994013;28;20226;-75
2022/12/23 05:35:22;;;;;;;2.10;0.50;;;;;;;;;;4993931;28;20182;-75
2022/12/23 05:38:26;;;;;;;3.03;0.80;;;;;;;;;;4992888;28;20198;-75
2022/12/23 05:41:30;;;;;;;0.97;0.50;;;;;;;;;;4992791;28;20222;-75
2022/12/23 05:44:34;;;;;;;0.80;0.40;;;;;;;;;;4993570;28;20198;-75
2022/12/23 05:47:38;;;;;;;1.70;0.50;;;;;;;;;;4993197;28;20546;-75
2022/12/23 05:50:43;;;;;;;2.43;0.53;;;;;;;;;;4993681;28;20649;-76
2022/12/23 05:53:47;;;;;;;2.33;0.70;;;;;;;;;;4993265;28;20179;-75
2022/12/23 05:56:51;;;;;;;2.20;0.50;;;;;;;;;;4993724;28;20174;-75
2022/12/23 05:59:55;;;;;;;0.60;0.50;;;;;;;;;;4993831;28;20178;-75
2022/12/23 06:02:59;;;;;;;0.50;0.50;;;;;;;;;;4993020;28;20183;-74
2022/12/23 06:06:04;;;;;;;1.10;0.60;;;;;;;;;;4992052;28;20685;-76
2022/12/23 06:09:08;;;;;;;0.70;0.57;;;;;;;;;;4992139;28;20519;-75
2022/12/23 06:12:13;;;;;;;0.70;0.57;;;;;;;;;;4980966;28;20554;-76
2022/12/23 06:15:17;;;;;;;1.53;0.67;;;;;;;;;;4992808;28;20182;-76
2022/12/23 06:18:21;;;;;;;0.60;0.50;;;;;;;;;;4992952;28;20179;-76
2022/12/23 06:21:25;;;;;;;1.07;0.60;;;;;;;;;;4992261;28;20214;-76
2022/12/23 06:24:30;;;;;;;0.60;0.50;;;;;;;;;;4993414;28;20183;-75
2022/12/23 06:27:33;;;;;;;0.93;0.50;;;;;;;;;;4999252;28;20210;-75
2022/12/23 06:30:38;;;;;;;1.30;0.50;;;;;;;;;;5000429;28;20182;-75
2022/12/23 06:33:42;;;;;;;0.70;0.50;;;;;;;;;;5000504;28;20178;-76
2022/12/23 06:36:47;;;;;;;0.73;0.50;;;;;;;;;;4999824;28;20193;-75
2022/12/23 06:39:51;;;;;;;2.43;0.50;;;;;;;;;;4998938;28;20206;-75
2022/12/23 06:42:55;;;;;;;0.80;0.50;;;;;;;;;;4987213;28;20186;-75
2022/12/23 06:45:59;;;;;;;0.73;0.53;;;;;;;;;;5002238;28;20197;-76
2022/12/23 06:49:03;;;;;;;0.67;0.50;;;;;;;;;;5007329;28;20197;-76
2022/12/23 06:52:07;;;;;;;0.80;0.60;;;;;;;;;;5020341;28;20579;-76
2022/12/23 06:55:11;;;;;;;0.63;0.50;;;;;;;;;;5009063;28;20189;-76
2022/12/23 06:58:15;;;;;;;0.70;0.50;;;;;;;;;;5009689;28;20197;-76
2022/12/23 07:01:20;;;;;;;6.63;5.07;;;;;;;;;;5005526;28;20217;-76
2022/12/23 07:04:25;;;;;;;3.53;3.23;;;;;;;;;;4982364;28;1055900;-77
2022/12/23 07:07:31;;;;;;;1.20;1.10;;;;;;;;;;5015867;28;20212;-76
2022/12/23 07:10:35;;;;;;;3.77;1.10;;;;;;;;;;5016222;28;20189;-76
2022/12/23 07:13:39;;;;;;;1.63;0.90;;;;;;;;;;5007901;28;20193;-76
2022/12/23 07:16:44;;;;;;;0.77;0.77;;;;;;;;;;5012204;28;20193;-75
2022/12/23 07:19:48;;;;;;;0.70;0.70;;;;;;;;;;4996538;28;20205;-76
2022/12/23 07:22:56;;;;;;;0.80;0.63;;;;;;;;;;5007900;28;20220;-76
2022/12/23 07:26:00;;;;;;;3.93;0.80;;;;;;;;;;5008125;28;20189;-77
2022/12/23 07:29:04;;;;;;;5.33;4.17;;;;;;;;;;5009130;28;20537;-76
2022/12/23 07:32:08;;;;;;;1.93;1.33;;;;;;;;;;5007645;28;20213;-75
2022/12/23 07:35:13;;;;;;;1.50;1.40;;;;;;;;;;5014322;28;20185;-76
2022/12/23 07:38:17;;;;;;;2.13;2.03;;;;;;;;;;5009009;28;20704;-76
2022/12/23 07:41:22;;;;;;;2.50;1.00;;;;;;;;;;5017684;28;20213;-77
2022/12/23 07:44:26;;;;;;;2.17;0.93;;;;;;;;;;4996197;28;20185;-77
2022/12/23 07:47:30;;;;;;;0.87;0.73;;;;;;;;;;5003578;28;20213;-76
2022/12/23 07:50:34;;;;;;;1.03;0.60;;;;;;;;;;5003686;28;20190;-77
2022/12/23 07:53:38;;;;;;;2.30;0.80;;;;;;;;;;4992791;28;20186;-77
2022/12/23 07:56:42;;;;;;;1.87;1.20;;;;;;;;;;5003941;28;20174;-77
2022/12/23 07:59:46;;;;;;;0.90;0.60;;;;;;;;;;4992388;28;20174;-77
2022/12/23 08:02:51;;;;;;;27.63;19.30;;;;;;;;;;5015620;28;20700;-76
2022/12/23 08:06:21;;;;;;;23.20;16.53;;;;;;;;;;5003062;28;20573;-77
2022/12/23 08:09:25;;;;;;;144.83;80.07;;;;;;;;;;4992368;28;20220;-77
2022/12/23 08:12:29;;;;;;;4.50;4.10;;;;;;;;;;5015715;28;20224;-77
2022/12/23 08:15:33;;;;;;;1.53;1.30;;;;;;;;;;4992247;28;20189;-77
2022/12/23 08:18:39;;;;;;;19.17;9.80;;;;;;;;;;5003378;28;20609;-77
2022/12/23 08:21:43;;;;;;;80.40;41.87;;;;;;;;;;5015334;28;20213;-76
2022/12/23 08:24:49;;;;;;;37.30;19.80;;;;;;;;;;5001603;28;20200;-76
2022/12/23 08:27:53;;;;;;;10.23;5.87;;;;;;;;;;5025826;28;20216;-76
2022/12/23 08:31:07;;;;;;;2.80;2.00;;;;;;;;;;5014076;28;20221;-77
2022/12/23 08:34:11;;;;;;;1.80;1.50;;;;;;;;;;5014043;28;20182;-76
2022/12/23 08:37:15;;;;;;;3.77;1.60;;;;;;;;;;5014068;28;20182;-76
2022/12/23 08:40:19;;;;;;;1.13;1.03;;;;;;;;;;5014175;28;20522;-76
2022/12/23 08:43:24;;;;;;;1.60;1.50;;;;;;;;;;5014740;28;20177;-76
2022/12/23 08:46:28;;;;;;;2.87;1.33;;;;;;;;;;5013574;28;20201;-76
2022/12/23 08:49:32;;;;;;;2.50;1.30;;;;;;;;;;5013677;28;20181;-76
2022/12/23 08:52:36;;;;;;;3.73;2.53;;;;;;;;;;5013696;28;20550;-76
2022/12/23 08:55:43;;;;;;;46.77;31.67;;;;;;;;;;5014448;28;20181;-76
2022/12/23 08:58:49;;;;;;;11.47;10.27;;;;;;;;;;5002310;28;20205;-76
2022/12/23 09:01:53;;;;;;;4.33;3.93;;;;;;;;;;5014388;28;20228;-76
2022/12/23 09:04:57;;;;;;;7.03;5.33;;;;;;;;;;5013087;28;20201;-76
2022/12/23 09:08:01;;;;;;;7.10;3.43;;;;;;;;;;5013451;28;20221;-76
2022/12/23 09:11:08;;;;;;;3.93;3.33;;;;;;;;;;5002138;28;20213;-76
2022/12/23 09:14:12;;;;;;;24.97;19.07;;;;;;;;;;4991119;28;20646;-76
2022/12/23 09:17:17;;;;;;;29.03;22.13;;;;;;;;;;5013388;28;20200;-76
2022/12/23 09:20:22;;;;;;;5.23;2.07;;;;;;;;;;5012995;28;20188;-76
2022/12/23 09:23:26;;;;;;;1.90;1.80;;;;;;;;;;5002218;28;20181;-76
2022/12/23 09:26:31;;;;;;;3.87;1.00;;;;;;;;;;5001868;28;20177;-76
2022/12/23 09:29:38;;;;;;;0.93;0.83;;;;;;;;;;5013295;28;20177;-76
2022/12/23 09:32:42;;;;;;;0.70;0.63;;;;;;;;;;5013614;28;20213;-76
2022/12/23 09:35:46;;;;;;;4.57;2.40;;;;;;;;;;5013793;28;20525;-76
2022/12/23 09:38:54;;;;;;;1.70;1.60;;;;;;;;;;5002050;28;20186;-76
2022/12/23 09:42:24;;;;;;;2.43;1.10;;;;;;;;;;5012952;28;20565;-77
2022/12/23 09:45:42;;;;;;;4.27;0.70;;;;;;;;;;5001088;28;20656;-76
2022/12/23 09:48:52;;;;;;;2.07;1.17;;;;;;;;;;5012680;28;20217;-77
2022/12/23 09:52:00;;;;;;;2.00;0.90;;;;;;;;;;5013477;28;20221;-77
2022/12/23 09:55:09;;;;;;;0.77;0.53;;;;;;;;;;5012936;28;20647;-76
2022/12/23 09:58:22;;;;;;;1.63;0.90;;;;;;;;;;5001715;28;20182;-76
2022/12/23 10:01:29;;;;;;;16.70;12.57;;;;;;;;;;5017342;28;20217;-76
2022/12/23 10:04:41;;;;;;;3.83;1.53;;;;;;;;;;5017424;28;20188;-76
2022/12/23 10:07:50;;;;;;;5.03;1.13;;;;;;;;;;5028067;28;20213;-77
2022/12/23 10:11:00;;;;;;;1.67;0.77;;;;;;;;;;5017425;28;20221;-76
2022/12/23 10:14:19;;;;;;;0.93;0.80;;;;;;;;;;5005547;28;20197;-77
2022/12/23 10:17:32;;;;;;;1.13;0.80;;;;;;;;;;5027819;28;20193;-77
2022/12/23 10:20:46;;;;;;;0.80;0.80;;;;;;;;;;5016312;28;20510;-77
2022/12/23 10:23:53;;;;;;;0.93;0.80;;;;;;;;;;5016618;28;20186;-77
2022/12/23 10:27:05;;;;;;;2.83;0.90;;;;;;;;;;5017097;28;20182;-77
2022/12/23 10:30:10;;;;;;;0.93;0.90;;;;;;;;;;5004972;28;20194;-77
2022/12/23 10:33:35;;;;;;;2.70;2.50;;;;;;;;;;5016302;28;20185;-77
2022/12/23 10:36:55;;;;;;;2.50;1.60;;;;;;;;;;5005090;28;20181;-77
2022/12/23 10:40:22;;;;;;;2.20;2.00;;;;;;;;;;5016312;28;20522;-76
2022/12/23 10:43:41;;;;;;;3.00;1.20;;;;;;;;;;5017052;28;20181;-77
2022/12/23 10:47:09;;;;;;;1.60;1.17;;;;;;;;;;5016954;28;20177;-77
2022/12/23 10:50:45;;;;;;;1.73;1.13;;;;;;;;;;5015937;28;20190;-77
2022/12/23 10:53:54;;;;;;;6.43;4.53;;;;;;;;;;5015820;28;20185;-77
2022/12/23 10:56:58;;;;;;;12.43;10.10;;;;;;;;;;5016263;28;20186;-77
2022/12/23 11:00:17;;;;;;;50.97;35.23;;;;;;;;;;5015441;28;20193;-77
2022/12/23 11:03:30;;;;;;;69.43;56.37;;;;;;;;;;5004259;28;20192;-78
2022/12/23 11:06:42;;;;;;;27.37;24.73;;;;;;;;;;5015965;28;20209;-77
2022/12/23 11:09:51;;;;;;;9.00;8.20;;;;;;;;;;5015935;28;20204;-77
2022/12/23 11:12:55;;;;;;;8.27;6.13;;;;;;;;;;5016273;28;20641;-77
2022/12/23 11:16:22;;;;;;;9.20;8.17;;;;;;;;;;5016686;28;20201;-77
2022/12/23 11:19:27;;;;;;;80.53;50.93;;;;;;;;;;5015536;28;20185;-77
2022/12/23 11:22:31;;;;;;;41.50;26.67;;;;;;;;;;5016000;28;20735;-78
2022/12/23 11:25:42;;;;;;;67.50;43.33;;;;;;;;;;5015086;28;20204;-77
2022/12/23 11:28:52;;;;;;;43.50;29.17;;;;;;;;;;5017663;28;20220;-78
2022/12/23 11:31:56;;;;;;;41.70;26.47;;;;;;;;;;5020253;28;20225;-78
2022/12/23 11:35:00;;;;;;;35.03;19.50;;;;;;;;;;5019525;28;20208;-78
2022/12/23 11:38:12;;;;;;;49.83;30.40;;;;;;;;;;5017383;28;20193;-78
2022/12/23 11:41:23;;;;;;;47.60;28.03;;;;;;;;;;5005931;28;20586;-78
2022/12/23 11:44:36;;;;;;;14.70;11.60;;;;;;;;;;5017258;28;20192;-78
2022/12/23 11:47:40;;;;;;;8.70;6.67;;;;;;;;;;5017982;28;20229;-78
2022/12/23 11:50:57;;;;;;;1.90;1.70;;;;;;;;;;5018003;28;20185;-78
2022/12/23 11:54:02;;;;;;;2.20;2.00;;;;;;;;;;5017014;28;20189;-78
2022/12/23 11:57:15;;;;;;;5.03;3.13;;;;;;;;;;5005140;28;20181;-78
2022/12/23 12:00:25;;;;;;;4.53;2.67;;;;;;;;;;5005039;28;20197;-78
2022/12/23 12:03:38;;;;;;;2.67;2.10;;;;;;;;;;5017130;28;20641;-78
2022/12/23 12:06:44;;;;;;;4.30;2.77;;;;;;;;;;5017333;28;20186;-78
2022/12/23 12:09:50;;;;;;;6.17;5.47;;;;;;;;;;5017257;28;20181;-78
2022/12/23 12:12:58;;;;;;;11.13;6.90;;;;;;;;;;5016740;28;20217;-79
2022/12/23 12:16:14;;;;;;;13.10;8.33;;;;;;;;;;5015137;28;20554;-77
2022/12/23 12:19:30;;;;;;;23.33;14.67;;;;;;;;;;5003909;28;20653;-78
2022/12/23 12:22:42;;;;;;;10.90;8.60;;;;;;;;;;5015059;28;20250;-79
2022/12/23 12:26:01;;;;;;;7.33;5.17;;;;;;;;;;5004620;28;20181;-78
2022/12/23 12:29:21;;;;;;;4.47;2.80;;;;;;;;;;5016777;28;20217;-78
2022/12/23 12:32:39;;;;;;;8.00;6.13;;;;;;;;;;5027666;28;20217;-78
2022/12/23 12:35:48;;;;;;;5.77;4.50;;;;;;;;;;5016340;28;20637;-78
2022/12/23 12:38:53;;;;;;;4.90;4.50;;;;;;;;;;5015413;28;20540;-78
2022/12/23 12:42:26;;;;;;;4.57;2.33;;;;;;;;;;5005818;28;20213;-78
2022/12/23 12:45:51;;;;;;;2.87;2.03;;;;;;;;;;5016229;28;20181;-78
2022/12/23 12:49:02;;;;;;;13.63;11.03;;;;;;;;;;5004119;28;20214;-77
2022/12/23 12:52:18;;;;;;;14.30;10.80;;;;;;;;;;5014434;28;20616;-78
2022/12/23 12:55:27;;;;;;;10.00;8.73;;;;;;;;;;5015353;28;20200;-78
2022/12/23 12:58:31;;;;;;;5.47;4.20;;;;;;;;;;5015077;28;20565;-77
2022/12/23 13:01:41;;;;;;;4.37;3.53;;;;;;;;;;5002999;28;20217;-77
2022/12/23 13:05:13;;;;;;;48.67;32.37;;;;;;;;;;5013694;28;20546;-78
2022/12/23 13:08:27;;;;;;;14.80;13.23;;;;;;;;;;5014122;28;20212;-78
2022/12/23 13:11:44;;;;;;;5.03;3.80;;;;;;;;;;5024817;28;20247;-77
2022/12/23 13:15:08;;;;;;;4.93;3.97;;;;;;;;;;5002325;28;20534;-77
2022/12/23 13:18:38;;;;;;;7.17;6.57;;;;;;;;;;5002363;28;20629;-77
2022/12/23 13:22:12;;;;;;;12.73;11.50;;;;;;;;;;5014017;28;20692;-77
2022/12/23 13:25:42;;;;;;;15.67;14.07;;;;;;;;;;5014701;28;20185;-78
2022/12/23 13:29:29;;;;;;;18.30;15.90;;;;;;;;;;5028069;28;20212;-78
2022/12/23 13:32:56;;;;;;;3.60;2.93;;;;;;;;;;5017162;28;20224;-78
2022/12/23 13:36:11;;;;;;;4.27;2.90;;;;;;;;;;5004737;28;20190;-78
2022/12/23 13:39:42;;;;;;;2.10;1.87;;;;;;;;;;5015952;28;20178;-78
2022/12/23 13:42:59;;;;;;;3.17;2.23;;;;;;;;;;5004029;28;20221;-78
2022/12/23 13:46:22;;;;;;;1.77;1.40;;;;;;;;;;5026163;28;20182;-78
2022/12/23 13:49:56;;;;;;;1.60;1.50;;;;;;;;;;5014676;28;20209;-78
2022/12/23 13:53:26;;;;;;;0.83;0.80;;;;;;;;;;5016274;28;20178;-78
2022/12/23 13:57:07;;;;;;;0.97;0.90;;;;;;;;;;5017794;28;20190;-78
2022/12/23 14:00:17;;;;;;;1.60;0.80;;;;;;;;;;5007813;28;20186;-78
2022/12/23 14:03:24;;;;;;;3.77;0.80;;;;;;;;;;5017255;28;20231;-78
2022/12/23 14:06:31;;;;;;;1.60;1.30;;;;;;;;;;5002776;28;20201;-79
2022/12/23 14:09:37;;;;;;;5.60;3.47;;;;;;;;;;5025445;28;20209;-79
2022/12/23 14:12:42;;;;;;;10.83;9.73;;;;;;;;;;5013394;28;20221;-79
2022/12/23 14:16:02;;;;;;;18.50;16.50;;;;;;;;;;5006853;28;20185;-78
2022/12/23 14:19:37;;;;;;;22.70;20.30;;;;;;;;;;5017838;28;20185;-78
2022/12/23 14:22:54;;;;;;;3.80;3.33;;;;;;;;;;5015434;28;20220;-78
2022/12/23 14:26:34;;;;;;;3.53;2.83;;;;;;;;;;5014052;28;20181;-78
2022/12/23 14:29:47;;;;;;;2.93;2.00;;;;;;;;;;5013938;28;20221;-78
2022/12/23 14:33:12;;;;;;;3.07;2.03;;;;;;;;;;5013510;28;20213;-78
2022/12/23 14:36:25;;;;;;;4.40;1.80;;;;;;;;;;5013899;28;20629;-77
2022/12/23 14:39:31;;;;;;;2.50;1.50;;;;;;;;;;5002626;28;20189;-78
2022/12/23 14:42:41;;;;;;;1.73;1.10;;;;;;;;;;5013092;28;20213;-77
2022/12/23 14:45:46;;;;;;;1.03;0.93;;;;;;;;;;5015433;28;20189;-77
2022/12/23 14:48:50;;;;;;;10.30;6.63;;;;;;;;;;5005412;28;20221;-77
2022/12/23 14:51:54;;;;;;;5.63;4.73;;;;;;;;;;5017241;28;20225;-77
2022/12/23 14:55:26;;;;;;;11.07;9.70;;;;;;;;;;5005503;28;20534;-78
2022/12/23 14:58:36;;;;;;;5.73;5.23;;;;;;;;;;5010886;28;20200;-78
2022/12/23 15:01:46;;;;;;;1.77;1.63;;;;;;;;;;5017020;28;20217;-77
2022/12/23 15:04:57;;;;;;;1.77;1.10;;;;;;;;;;5016392;28;20580;-77
2022/12/23 15:08:03;;;;;;;3.90;0.80;;;;;;;;;;5017294;28;20194;-77
2022/12/23 15:11:32;;;;;;;1.73;1.03;;;;;;;;;;5016375;28;20213;-78
2022/12/23 15:14:45;;;;;;;2.97;1.90;;;;;;;;;;4994435;28;20633;-77
2022/12/23 15:18:00;;;;;;;1.47;1.10;;;;;;;;;;5016915;28;20181;-77
2022/12/23 15:21:11;;;;;;;6.37;1.00;;;;;;;;;;5004841;28;20217;-77
2022/12/23 15:24:18;;;;;;;2.23;1.60;;;;;;;;;;5016550;28;20169;-77
2022/12/23 15:27:22;;;;;;;10.57;5.63;;;;;;;;;;5016884;28;20205;-77
2022/12/23 15:30:29;;;;;;;20.07;12.87;;;;;;;;;;5017455;28;20232;-78
2022/12/23 15:33:34;;;;;;;35.90;21.20;;;;;;;;;;5016392;28;20549;-76
2022/12/23 15:36:42;;;;;;;65.33;37.37;;;;;;;;;;5004466;28;20193;-77
2022/12/23 15:39:48;;;;;;;9.10;4.90;;;;;;;;;;5015818;28;20189;-77
2022/12/23 15:42:52;;;;;;;4.13;1.83;;;;;;;;;;5015283;28;20217;-77
2022/12/23 15:46:23;;;;;;;2.77;1.83;;;;;;;;;;5004350;28;20629;-77
2022/12/23 15:49:27;;;;;;;5.17;1.33;;;;;;;;;;5015421;28;20201;-77
2022/12/23 15:52:31;;;;;;;1.00;0.90;;;;;;;;;;5015192;28;20221;-77
2022/12/23 15:55:39;;;;;;;2.60;1.20;;;;;;;;;;5015089;28;20181;-77
2022/12/23 15:58:43;;;;;;;9.63;8.73;;;;;;;;;;5014718;28;20173;-77
2022/12/23 16:01:47;;;;;;;28.93;26.03;;;;;;;;;;5003899;28;20213;-77
2022/12/23 16:04:59;;;;;;;5.47;5.07;;;;;;;;;;5014541;28;20208;-77
2022/12/23 16:08:19;;;;;;;1.97;1.60;;;;;;;;;;5016019;28;20189;-78
2022/12/23 16:11:37;;;;;;;5.00;3.10;;;;;;;;;;5016636;28;20213;-78
2022/12/23 16:14:51;;;;;;;4.17;3.03;;;;;;;;;;5015410;28;20185;-77
2022/12/23 16:18:21;;;;;;;1.90;1.67;;;;;;;;;;5003106;28;20185;-77
2022/12/23 16:21:32;;;;;;;2.10;1.80;;;;;;;;;;5014158;28;20217;-77
2022/12/23 16:24:37;;;;;;;1.60;1.40;;;;;;;;;;4991842;28;20530;-78
2022/12/23 16:27:46;;;;;;;1.83;1.57;;;;;;;;;;5002727;28;20205;-77
2022/12/23 16:30:56;;;;;;;1.50;1.40;;;;;;;;;;5002689;28;20264;-77
2022/12/23 16:34:05;;;;;;;1.50;1.40;;;;;;;;;;5002929;28;20523;-76
2022/12/23 16:37:09;;;;;;;2.70;1.27;;;;;;;;;;5002630;28;20185;-76
2022/12/23 16:40:13;;;;;;;1.63;1.53;;;;;;;;;;5014731;28;20544;-76
2022/12/23 16:43:18;;;;;;;2.30;2.10;;;;;;;;;;5015062;28;20177;-76
2022/12/23 16:46:22;;;;;;;4.73;4.10;;;;;;;;;;5014719;28;20181;-76
2022/12/23 16:49:28;;;;;;;3.40;3.10;;;;;;;;;;5013723;28;20209;-76
2022/12/23 16:52:32;;;;;;;1.90;1.80;;;;;;;;;;5014420;28;20213;-76
2022/12/23 16:55:36;;;;;;;3.93;3.63;;;;;;;;;;5013633;28;20177;-76
2022/12/23 16:58:40;;;;;;;4.50;4.10;;;;;;;;;;5013698;28;20181;-76
2022/12/23 17:01:45;;;;;;;2.00;1.50;;;;;;;;;;5014346;28;20213;-76
2022/12/23 17:04:50;;;;;;;2.33;1.20;;;;;;;;;;5014356;28;20688;-77
2022/12/23 17:07:54;;;;;;;1.57;1.30;;;;;;;;;;5014740;28;20186;-78
2022/12/23 17:10:58;;;;;;;2.20;1.57;;;;;;;;;;5014088;28;20233;-77
2022/12/23 17:14:03;;;;;;;2.00;1.47;;;;;;;;;;5013658;28;20201;-76
2022/12/23 17:17:13;;;;;;;9.57;1.30;;;;;;;;;;5013008;28;20201;-76
2022/12/23 17:20:18;;;;;;;2.23;1.20;;;;;;;;;;5014009;28;20645;-76
2022/12/23 17:23:29;;;;;;;2.20;1.00;;;;;;;;;;5013319;28;20190;-76
2022/12/23 17:26:35;;;;;;;3.60;2.40;;;;;;;;;;5013715;28;20193;-75
2022/12/23 17:29:39;;;;;;;11.03;7.33;;;;;;;;;;5012922;28;20225;-76
2022/12/23 17:32:58;;;;;;;12.53;8.63;;;;;;;;;;5014002;28;20232;-76
2022/12/23 17:36:03;;;;;;;2.93;1.80;;;;;;;;;;5012899;28;20699;-76
2022/12/23 17:39:08;;;;;;;1.00;0.83;;;;;;;;;;5013092;28;20185;-76
2022/12/23 17:42:19;;;;;;;0.77;0.70;;;;;;;;;;5012960;28;20217;-76
2022/12/23 17:45:26;;;;;;;1.07;0.80;;;;;;;;;;5013119;28;20189;-76
2022/12/23 17:48:30;;;;;;;1.03;0.83;;;;;;;;;;5001722;28;20177;-76
2022/12/23 17:51:34;;;;;;;3.10;1.30;;;;;;;;;;5013289;28;20213;-75
2022/12/23 17:54:38;;;;;;;2.23;1.07;;;;;;;;;;5021149;28;20188;-75
2022/12/23 17:57:42;;;;;;;1.40;1.20;;;;;;;;;;4981741;28;20190;-76
2022/12/23 18:00:46;;;;;;;1.40;1.30;;;;;;;;;;4981697;28;20182;-76
2022/12/23 18:03:51;;;;;;;1.30;1.10;;;;;;;;;;4993676;28;20198;-77
2022/12/23 18:06:55;;;;;;;1.20;1.03;;;;;;;;;;4981968;28;20574;-77
2022/12/23 18:09:59;;;;;;;1.27;1.07;;;;;;;;;;4981740;28;20210;-76
2022/12/23 18:13:15;;;;;;;1.40;1.30;;;;;;;;;;4982089;28;20182;-76
2022/12/23 18:16:19;;;;;;;4.07;1.30;;;;;;;;;;4993847;28;20183;-76
2022/12/23 18:19:24;;;;;;;1.60;1.17;;;;;;;;;;4992630;28;20542;-76
2022/12/23 18:22:28;;;;;;;2.43;1.20;;;;;;;;;;4985641;28;20559;-76
2022/12/23 18:25:32;;;;;;;1.60;0.80;;;;;;;;;;4996742;28;20189;-74
2022/12/23 18:28:36;;;;;;;1.30;0.90;;;;;;;;;;4996293;28;20182;-74
2022/12/23 18:31:46;;;;;;;1.10;1.00;;;;;;;;;;4997366;28;20562;-74
2022/12/23 18:34:52;;;;;;;1.97;1.47;;;;;;;;;;4997188;28;20178;-74
2022/12/23 18:37:57;;;;;;;2.50;2.30;;;;;;;;;;4997023;28;20182;-74
2022/12/23 18:41:01;;;;;;;10.27;8.90;;;;;;;;;;4997179;28;20214;-74
2022/12/23 18:44:14;;;;;;;8.87;8.07;;;;;;;;;;4997117;28;20182;-74
2022/12/23 18:47:19;;;;;;;14.73;9.80;;;;;;;;;;4997243;28;20194;-75
2022/12/23 18:50:24;;;;;;;18.13;15.33;;;;;;;;;;4996634;28;20225;-75
2022/12/23 18:53:28;;;;;;;40.33;26.17;;;;;;;;;;4996677;28;20185;-75
2022/12/23 18:56:32;;;;;;;15.20;9.63;;;;;;;;;;4996674;28;20193;-76
2022/12/23 18:59:37;;;;;;;3.30;3.00;;;;;;;;;;4984643;28;20209;-75
2022/12/23 19:02:41;;;;;;;3.40;3.10;;;;;;;;;;4995694;28;20214;-75
2022/12/23 19:05:47;;;;;;;3.43;3.13;;;;;;;;;;4996693;28;20205;-76
2022/12/23 19:08:51;;;;;;;1.60;1.43;;;;;;;;;;4995802;28;20183;-75
2022/12/23 19:11:55;;;;;;;1.00;0.90;;;;;;;;;;4984377;28;20218;-75
2022/12/23 19:15:00;;;;;;;1.50;1.03;;;;;;;;;;4996190;28;20194;-75
2022/12/23 19:18:03;;;;;;;1.73;0.90;;;;;;;;;;4973584;28;20178;-75
2022/12/23 19:21:08;;;;;;;8.37;1.20;;;;;;;;;;4996374;28;20210;-75
2022/12/23 19:24:12;;;;;;;1.43;0.80;;;;;;;;;;4984392;28;20179;-75
2022/12/23 19:27:16;;;;;;;1.30;1.10;;;;;;;;;;4995518;28;20186;-76